sensor_id;sensor_type;location;lat;lon;timestamp;P1;durP1;ratioP1;P2;durP2;ratioP2
79361;SDS011;68830;47.566;19.012;2023-04-01T00:02:56;2.20;;;1.42;;
79361;SDS011;68830;47.566;19.012;2023-04-01T00:05:58;2.25;;;1.30;;
79361;SDS011;68830;47.566;19.012;2023-04-01T00:09:00;2.95;;;1.15;;
79361;SDS011;68830;47.566;19.012;2023-04-01T00:12:04;2.55;;;1.33;;
79361;SDS011;68830;47.566;19.012;2023-04-01T00:15:06;1.48;;;1.30;;
79361;SDS011;68830;47.566;19.012;2023-04-01T00:18:12;3.10;;;1.17;;
79361;SDS011;68830;47.566;19.012;2023-04-01T00:21:15;2.15;;;1.23;;
79361;SDS011;68830;47.566;19.012;2023-04-01T00:24:18;1.63;;;1.17;;
79361;SDS011;68830;47.566;19.012;2023-04-01T00:27:21;2.45;;;1.20;;
79361;SDS011;68830;47.566;19.012;2023-04-01T00:30:24;1.77;;;1.40;;
79361;SDS011;68830;47.566;19.012;2023-04-01T00:33:26;2.83;;;1.45;;
79361;SDS011;68830;47.566;19.012;2023-04-01T00:36:29;2.58;;;1.38;;
79361;SDS011;68830;47.566;19.012;2023-04-01T00:39:31;2.70;;;1.42;;
79361;SDS011;68830;47.566;19.012;2023-04-01T00:42:36;1.33;;;1.10;;
79361;SDS011;68830;47.566;19.012;2023-04-01T00:45:39;2.00;;;1.30;;
79361;SDS011;68830;47.566;19.012;2023-04-01T00:48:43;2.33;;;1.23;;
79361;SDS011;68830;47.566;19.012;2023-04-01T00:51:47;1.95;;;1.38;;
79361;SDS011;68830;47.566;19.012;2023-04-01T00:54:53;1.83;;;1.42;;
79361;SDS011;68830;47.566;19.012;2023-04-01T00:58:03;2.50;;;1.30;;
79361;SDS011;68830;47.566;19.012;2023-04-01T01:01:08;1.35;;;1.10;;
79361;SDS011;68830;47.566;19.012;2023-04-01T01:04:20;1.10;;;1.00;;
79361;SDS011;68830;47.566;19.012;2023-04-01T01:07:25;2.58;;;1.10;;
79361;SDS011;68830;47.566;19.012;2023-04-01T01:10:37;1.83;;;1.27;;
79361;SDS011;68830;47.566;19.012;2023-04-01T01:13:43;1.75;;;1.15;;
79361;SDS011;68830;47.566;19.012;2023-04-01T01:16:51;2.22;;;1.38;;
79361;SDS011;68830;47.566;19.012;2023-04-01T01:20:10;1.80;;;1.05;;
79361;SDS011;68830;47.566;19.012;2023-04-01T01:23:38;1.40;;;1.23;;
79361;SDS011;68830;47.566;19.012;2023-04-01T01:27:02;1.95;;;1.45;;
79361;SDS011;68830;47.566;19.012;2023-04-01T01:30:14;1.33;;;1.02;;
79361;SDS011;68830;47.566;19.012;2023-04-01T01:33:33;3.60;;;1.17;;
79361;SDS011;68830;47.566;19.012;2023-04-01T01:36:48;2.33;;;1.00;;
79361;SDS011;68830;47.566;19.012;2023-04-01T01:39:55;3.22;;;1.33;;
79361;SDS011;68830;47.566;19.012;2023-04-01T01:43:00;1.25;;;1.10;;
79361;SDS011;68830;47.566;19.012;2023-04-01T01:46:08;0.90;;;0.70;;
79361;SDS011;68830;47.566;19.012;2023-04-01T01:49:12;2.00;;;1.00;;
79361;SDS011;68830;47.566;19.012;2023-04-01T01:52:18;1.75;;;1.02;;
79361;SDS011;68830;47.566;19.012;2023-04-01T01:55:24;0.95;;;0.80;;
79361;SDS011;68830;47.566;19.012;2023-04-01T01:58:32;1.98;;;1.00;;
79361;SDS011;68830;47.566;19.012;2023-04-01T02:01:42;1.27;;;0.80;;
79361;SDS011;68830;47.566;19.012;2023-04-01T02:04:47;1.33;;;0.90;;
79361;SDS011;68830;47.566;19.012;2023-04-01T02:07:55;0.68;;;0.65;;
79361;SDS011;68830;47.566;19.012;2023-04-01T02:11:03;1.10;;;0.90;;
79361;SDS011;68830;47.566;19.012;2023-04-01T02:14:09;0.85;;;0.73;;
79361;SDS011;68830;47.566;19.012;2023-04-01T02:17:16;0.65;;;0.47;;
79361;SDS011;68830;47.566;19.012;2023-04-01T02:20:19;2.05;;;1.25;;
79361;SDS011;68830;47.566;19.012;2023-04-01T02:23:26;1.00;;;0.80;;
79361;SDS011;68830;47.566;19.012;2023-04-01T02:26:29;1.23;;;0.75;;
79361;SDS011;68830;47.566;19.012;2023-04-01T02:29:32;1.67;;;0.80;;
79361;SDS011;68830;47.566;19.012;2023-04-01T02:32:34;1.30;;;1.05;;
79361;SDS011;68830;47.566;19.012;2023-04-01T02:35:39;1.67;;;0.90;;
79361;SDS011;68830;47.566;19.012;2023-04-01T02:38:43;1.00;;;0.82;;
79361;SDS011;68830;47.566;19.012;2023-04-01T02:41:46;1.75;;;1.10;;
79361;SDS011;68830;47.566;19.012;2023-04-01T02:44:48;1.17;;;0.60;;
79361;SDS011;68830;47.566;19.012;2023-04-01T02:47:50;0.55;;;0.55;;
79361;SDS011;68830;47.566;19.012;2023-04-01T02:50:52;0.80;;;0.70;;
79361;SDS011;68830;47.566;19.012;2023-04-01T02:53:56;1.70;;;0.70;;
79361;SDS011;68830;47.566;19.012;2023-04-01T02:56:58;1.17;;;0.90;;
79361;SDS011;68830;47.566;19.012;2023-04-01T03:00:00;1.02;;;0.80;;
79361;SDS011;68830;47.566;19.012;2023-04-01T03:03:02;1.73;;;0.70;;
79361;SDS011;68830;47.566;19.012;2023-04-01T03:06:05;1.05;;;0.60;;
79361;SDS011;68830;47.566;19.012;2023-04-01T03:09:09;0.47;;;0.47;;
79361;SDS011;68830;47.566;19.012;2023-04-01T03:12:11;1.08;;;0.90;;
79361;SDS011;68830;47.566;19.012;2023-04-01T03:15:14;0.60;;;0.60;;
79361;SDS011;68830;47.566;19.012;2023-04-01T03:18:16;0.52;;;0.52;;
79361;SDS011;68830;47.566;19.012;2023-04-01T03:21:19;0.80;;;0.70;;
79361;SDS011;68830;47.566;19.012;2023-04-01T03:24:25;1.73;;;0.77;;
79361;SDS011;68830;47.566;19.012;2023-04-01T03:27:26;0.88;;;0.52;;
79361;SDS011;68830;47.566;19.012;2023-04-01T03:30:29;1.13;;;0.75;;
79361;SDS011;68830;47.566;19.012;2023-04-01T03:33:35;0.38;;;0.38;;
79361;SDS011;68830;47.566;19.012;2023-04-01T03:36:37;1.27;;;0.70;;
79361;SDS011;68830;47.566;19.012;2023-04-01T03:39:42;1.90;;;0.98;;
79361;SDS011;68830;47.566;19.012;2023-04-01T03:42:45;0.85;;;0.75;;
79361;SDS011;68830;47.566;19.012;2023-04-01T03:45:47;1.15;;;0.93;;
79361;SDS011;68830;47.566;19.012;2023-04-01T03:48:51;0.55;;;0.55;;
79361;SDS011;68830;47.566;19.012;2023-04-01T03:51:53;0.63;;;0.60;;
79361;SDS011;68830;47.566;19.012;2023-04-01T03:54:57;0.68;;;0.65;;
79361;SDS011;68830;47.566;19.012;2023-04-01T03:57:59;2.38;;;0.98;;
79361;SDS011;68830;47.566;19.012;2023-04-01T04:01:03;1.02;;;0.70;;
79361;SDS011;68830;47.566;19.012;2023-04-01T04:04:14;0.80;;;0.80;;
79361;SDS011;68830;47.566;19.012;2023-04-01T04:07:16;1.17;;;0.70;;
79361;SDS011;68830;47.566;19.012;2023-04-01T04:10:19;1.20;;;0.77;;
79361;SDS011;68830;47.566;19.012;2023-04-01T04:13:22;0.38;;;0.38;;
79361;SDS011;68830;47.566;19.012;2023-04-01T04:16:23;0.68;;;0.60;;
79361;SDS011;68830;47.566;19.012;2023-04-01T04:19:26;1.05;;;0.70;;
79361;SDS011;68830;47.566;19.012;2023-04-01T04:22:32;1.10;;;0.63;;
79361;SDS011;68830;47.566;19.012;2023-04-01T04:25:35;0.63;;;0.60;;
79361;SDS011;68830;47.566;19.012;2023-04-01T04:28:37;1.95;;;0.90;;
79361;SDS011;68830;47.566;19.012;2023-04-01T04:31:40;1.10;;;0.82;;
79361;SDS011;68830;47.566;19.012;2023-04-01T04:34:42;1.20;;;0.90;;
79361;SDS011;68830;47.566;19.012;2023-04-01T04:37:44;1.48;;;0.98;;
79361;SDS011;68830;47.566;19.012;2023-04-01T04:40:47;0.50;;;0.50;;
79361;SDS011;68830;47.566;19.012;2023-04-01T04:43:51;0.73;;;0.73;;
79361;SDS011;68830;47.566;19.012;2023-04-01T04:46:54;1.13;;;0.90;;
79361;SDS011;68830;47.566;19.012;2023-04-01T04:49:59;1.48;;;0.85;;
79361;SDS011;68830;47.566;19.012;2023-04-01T04:53:01;0.95;;;0.80;;
79361;SDS011;68830;47.566;19.012;2023-04-01T04:56:05;1.48;;;1.00;;
79361;SDS011;68830;47.566;19.012;2023-04-01T04:59:07;2.22;;;1.10;;
79361;SDS011;68830;47.566;19.012;2023-04-01T05:02:09;1.13;;;0.90;;
79361;SDS011;68830;47.566;19.012;2023-04-01T05:05:11;0.70;;;0.65;;
79361;SDS011;68830;47.566;19.012;2023-04-01T05:08:14;1.60;;;0.90;;
79361;SDS011;68830;47.566;19.012;2023-04-01T05:11:18;1.83;;;0.88;;
79361;SDS011;68830;47.566;19.012;2023-04-01T05:14:21;2.30;;;1.30;;
79361;SDS011;68830;47.566;19.012;2023-04-01T05:17:24;2.20;;;1.02;;
79361;SDS011;68830;47.566;19.012;2023-04-01T05:20:26;0.80;;;0.80;;
79361;SDS011;68830;47.566;19.012;2023-04-01T05:23:32;1.90;;;1.15;;
79361;SDS011;68830;47.566;19.012;2023-04-01T05:26:35;2.63;;;1.90;;
79361;SDS011;68830;47.566;19.012;2023-04-01T05:29:38;1.13;;;1.00;;
79361;SDS011;68830;47.566;19.012;2023-04-01T05:32:40;1.17;;;0.90;;
79361;SDS011;68830;47.566;19.012;2023-04-01T05:35:42;1.50;;;1.10;;
79361;SDS011;68830;47.566;19.012;2023-04-01T05:38:44;2.40;;;1.73;;
79361;SDS011;68830;47.566;19.012;2023-04-01T05:41:50;1.10;;;1.00;;
79361;SDS011;68830;47.566;19.012;2023-04-01T05:44:53;1.27;;;1.02;;
79361;SDS011;68830;47.566;19.012;2023-04-01T05:47:55;1.27;;;1.10;;
79361;SDS011;68830;47.566;19.012;2023-04-01T05:50:58;1.10;;;1.00;;
79361;SDS011;68830;47.566;19.012;2023-04-01T05:54:00;1.42;;;0.88;;
79361;SDS011;68830;47.566;19.012;2023-04-01T05:57:03;1.73;;;1.02;;
79361;SDS011;68830;47.566;19.012;2023-04-01T06:00:06;1.65;;;1.20;;
79361;SDS011;68830;47.566;19.012;2023-04-01T06:03:08;1.08;;;0.80;;
79361;SDS011;68830;47.566;19.012;2023-04-01T06:06:11;1.70;;;0.98;;
79361;SDS011;68830;47.566;19.012;2023-04-01T06:09:17;2.03;;;1.10;;
79361;SDS011;68830;47.566;19.012;2023-04-01T06:12:37;2.10;;;1.20;;
79361;SDS011;68830;47.566;19.012;2023-04-01T06:15:53;2.05;;;0.90;;
79361;SDS011;68830;47.566;19.012;2023-04-01T06:19:07;1.77;;;1.05;;
79361;SDS011;68830;47.566;19.012;2023-04-01T06:22:39;2.58;;;0.95;;
79361;SDS011;68830;47.566;19.012;2023-04-01T06:32:56;1.08;;;0.98;;
79361;SDS011;68830;47.566;19.012;2023-04-01T06:36:14;0.60;;;0.60;;
79361;SDS011;68830;47.566;19.012;2023-04-01T06:39:27;2.53;;;1.83;;
79361;SDS011;68830;47.566;19.012;2023-04-01T06:42:47;0.50;;;0.50;;
79361;SDS011;68830;47.566;19.012;2023-04-01T06:46:06;1.25;;;0.85;;
79361;SDS011;68830;47.566;19.012;2023-04-01T06:49:24;1.27;;;1.10;;
79361;SDS011;68830;47.566;19.012;2023-04-01T06:52:38;2.15;;;0.98;;
79361;SDS011;68830;47.566;19.012;2023-04-01T06:55:51;2.75;;;1.08;;
79361;SDS011;68830;47.566;19.012;2023-04-01T06:59:00;1.48;;;0.82;;
79361;SDS011;68830;47.566;19.012;2023-04-01T07:02:14;2.28;;;0.98;;
79361;SDS011;68830;47.566;19.012;2023-04-01T07:05:24;1.00;;;0.90;;
79361;SDS011;68830;47.566;19.012;2023-04-01T07:08:31;1.15;;;0.90;;
79361;SDS011;68830;47.566;19.012;2023-04-01T07:11:38;1.48;;;1.10;;
79361;SDS011;68830;47.566;19.012;2023-04-01T07:14:42;1.30;;;0.90;;
79361;SDS011;68830;47.566;19.012;2023-04-01T07:17:48;2.28;;;1.38;;
79361;SDS011;68830;47.566;19.012;2023-04-01T07:20:56;1.70;;;1.00;;
79361;SDS011;68830;47.566;19.012;2023-04-01T07:23:59;1.27;;;0.90;;
79361;SDS011;68830;47.566;19.012;2023-04-01T07:27:05;1.00;;;0.82;;
79361;SDS011;68830;47.566;19.012;2023-04-01T07:30:13;1.70;;;0.82;;
79361;SDS011;68830;47.566;19.012;2023-04-01T07:33:19;2.15;;;0.88;;
79361;SDS011;68830;47.566;19.012;2023-04-01T07:36:29;2.50;;;0.70;;
79361;SDS011;68830;47.566;19.012;2023-04-01T07:39:38;1.15;;;0.57;;
79361;SDS011;68830;47.566;19.012;2023-04-01T07:42:55;2.38;;;0.90;;
79361;SDS011;68830;47.566;19.012;2023-04-01T07:46:08;1.45;;;0.85;;
79361;SDS011;68830;47.566;19.012;2023-04-01T07:49:22;1.38;;;0.73;;
79361;SDS011;68830;47.566;19.012;2023-04-01T07:52:33;0.90;;;0.57;;
79361;SDS011;68830;47.566;19.012;2023-04-01T07:55:42;1.65;;;0.80;;
79361;SDS011;68830;47.566;19.012;2023-04-01T07:58:52;0.65;;;0.60;;
79361;SDS011;68830;47.566;19.012;2023-04-01T08:02:02;3.30;;;1.10;;
79361;SDS011;68830;47.566;19.012;2023-04-01T08:05:16;1.15;;;0.95;;
79361;SDS011;68830;47.566;19.012;2023-04-01T08:08:27;2.42;;;1.15;;
79361;SDS011;68830;47.566;19.012;2023-04-01T08:11:41;1.25;;;0.95;;
79361;SDS011;68830;47.566;19.012;2023-04-01T08:14:54;1.02;;;0.77;;
79361;SDS011;68830;47.566;19.012;2023-04-01T08:18:09;0.90;;;0.70;;
79361;SDS011;68830;47.566;19.012;2023-04-01T08:21:21;0.90;;;0.75;;
79361;SDS011;68830;47.566;19.012;2023-04-01T08:24:27;0.75;;;0.75;;
79361;SDS011;68830;47.566;19.012;2023-04-01T08:27:48;1.08;;;0.73;;
79361;SDS011;68830;47.566;19.012;2023-04-01T08:30:55;1.48;;;0.93;;
79361;SDS011;68830;47.566;19.012;2023-04-01T08:34:03;1.00;;;0.82;;
79361;SDS011;68830;47.566;19.012;2023-04-01T08:37:10;2.25;;;0.60;;
79361;SDS011;68830;47.566;19.012;2023-04-01T08:44:04;0.98;;;0.70;;
79361;SDS011;68830;47.566;19.012;2023-04-01T08:51:01;1.67;;;0.90;;
79361;SDS011;68830;47.566;19.012;2023-04-01T08:54:33;1.27;;;0.80;;
79361;SDS011;68830;47.566;19.012;2023-04-01T08:57:50;1.50;;;1.00;;
79361;SDS011;68830;47.566;19.012;2023-04-01T09:01:08;2.15;;;1.10;;
79361;SDS011;68830;47.566;19.012;2023-04-01T09:04:34;1.25;;;0.90;;
79361;SDS011;68830;47.566;19.012;2023-04-01T09:08:08;1.27;;;0.77;;
79361;SDS011;68830;47.566;19.012;2023-04-01T09:11:25;1.13;;;0.90;;
79361;SDS011;68830;47.566;19.012;2023-04-01T09:14:39;0.75;;;0.60;;
79361;SDS011;68830;47.566;19.012;2023-04-01T09:18:09;1.08;;;0.70;;
79361;SDS011;68830;47.566;19.012;2023-04-01T09:21:24;1.35;;;0.85;;
79361;SDS011;68830;47.566;19.012;2023-04-01T09:24:58;1.80;;;1.10;;
79361;SDS011;68830;47.566;19.012;2023-04-01T09:28:14;1.05;;;0.68;;
79361;SDS011;68830;47.566;19.012;2023-04-01T09:31:26;1.08;;;0.75;;
79361;SDS011;68830;47.566;19.012;2023-04-01T09:34:52;1.35;;;0.88;;
79361;SDS011;68830;47.566;19.012;2023-04-01T09:37:59;3.72;;;1.88;;
79361;SDS011;68830;47.566;19.012;2023-04-01T09:41:21;1.13;;;0.75;;
79361;SDS011;68830;47.566;19.012;2023-04-01T09:44:32;1.98;;;1.27;;
79361;SDS011;68830;47.566;19.012;2023-04-01T09:47:42;1.08;;;0.65;;
79361;SDS011;68830;47.566;19.012;2023-04-01T09:50:53;1.73;;;0.93;;
79361;SDS011;68830;47.566;19.012;2023-04-01T09:57:31;1.48;;;1.20;;
79361;SDS011;68830;47.566;19.012;2023-04-01T10:01:04;1.65;;;0.85;;
79361;SDS011;68830;47.566;19.012;2023-04-01T10:11:55;0.70;;;0.70;;
79361;SDS011;68830;47.566;19.012;2023-04-01T10:15:24;1.13;;;0.85;;
79361;SDS011;68830;47.566;19.012;2023-04-01T10:18:48;1.17;;;0.90;;
79361;SDS011;68830;47.566;19.012;2023-04-01T10:22:16;1.75;;;1.08;;
79361;SDS011;68830;47.566;19.012;2023-04-01T10:25:31;1.08;;;1.00;;
79361;SDS011;68830;47.566;19.012;2023-04-01T10:29:21;1.23;;;0.80;;
79361;SDS011;68830;47.566;19.012;2023-04-01T10:47:28;1.63;;;0.93;;
79361;SDS011;68830;47.566;19.012;2023-04-01T10:51:00;1.45;;;0.85;;
79361;SDS011;68830;47.566;19.012;2023-04-01T10:54:22;1.05;;;0.70;;
79361;SDS011;68830;47.566;19.012;2023-04-01T10:57:52;0.60;;;0.60;;
79361;SDS011;68830;47.566;19.012;2023-04-01T11:01:20;0.95;;;0.75;;
79361;SDS011;68830;47.566;19.012;2023-04-01T11:04:47;1.27;;;0.80;;
79361;SDS011;68830;47.566;19.012;2023-04-01T11:08:16;1.33;;;0.68;;
79361;SDS011;68830;47.566;19.012;2023-04-01T11:15:30;0.95;;;0.70;;
79361;SDS011;68830;47.566;19.012;2023-04-01T11:19:02;0.70;;;0.70;;
79361;SDS011;68830;47.566;19.012;2023-04-01T11:22:24;1.00;;;0.90;;
79361;SDS011;68830;47.566;19.012;2023-04-01T11:25:46;0.73;;;0.60;;
79361;SDS011;68830;47.566;19.012;2023-04-01T11:29:11;1.17;;;0.70;;
79361;SDS011;68830;47.566;19.012;2023-04-01T11:36:00;1.10;;;0.55;;
79361;SDS011;68830;47.566;19.012;2023-04-01T11:39:15;0.75;;;0.50;;
79361;SDS011;68830;47.566;19.012;2023-04-01T11:42:28;0.95;;;0.65;;
79361;SDS011;68830;47.566;19.012;2023-04-01T11:45:45;1.08;;;0.70;;
79361;SDS011;68830;47.566;19.012;2023-04-01T11:48:54;0.95;;;0.80;;
79361;SDS011;68830;47.566;19.012;2023-04-01T11:52:12;0.63;;;0.63;;
79361;SDS011;68830;47.566;19.012;2023-04-01T11:55:24;0.90;;;0.55;;
79361;SDS011;68830;47.566;19.012;2023-04-01T11:58:36;0.38;;;0.35;;
79361;SDS011;68830;47.566;19.012;2023-04-01T12:01:51;1.17;;;0.80;;
79361;SDS011;68830;47.566;19.012;2023-04-01T12:05:14;0.90;;;0.68;;
79361;SDS011;68830;47.566;19.012;2023-04-01T12:08:38;0.85;;;0.63;;
79361;SDS011;68830;47.566;19.012;2023-04-01T12:11:49;0.60;;;0.60;;
79361;SDS011;68830;47.566;19.012;2023-04-01T12:15:03;0.85;;;0.50;;
79361;SDS011;68830;47.566;19.012;2023-04-01T12:18:22;0.95;;;0.50;;
79361;SDS011;68830;47.566;19.012;2023-04-01T12:21:29;1.13;;;0.50;;
79361;SDS011;68830;47.566;19.012;2023-04-01T12:24:44;0.68;;;0.60;;
79361;SDS011;68830;47.566;19.012;2023-04-01T12:27:53;1.08;;;0.70;;
79361;SDS011;68830;47.566;19.012;2023-04-01T12:31:12;0.40;;;0.40;;
79361;SDS011;68830;47.566;19.012;2023-04-01T12:38:03;0.98;;;0.70;;
79361;SDS011;68830;47.566;19.012;2023-04-01T12:41:21;1.40;;;0.90;;
79361;SDS011;68830;47.566;19.012;2023-04-01T12:44:30;0.60;;;0.60;;
79361;SDS011;68830;47.566;19.012;2023-04-01T12:47:47;1.17;;;0.70;;
79361;SDS011;68830;47.566;19.012;2023-04-01T12:51:14;1.05;;;0.70;;
79361;SDS011;68830;47.566;19.012;2023-04-01T13:02:11;0.80;;;0.60;;
79361;SDS011;68830;47.566;19.012;2023-04-01T13:05:32;0.82;;;0.65;;
79361;SDS011;68830;47.566;19.012;2023-04-01T13:09:01;1.30;;;0.90;;
79361;SDS011;68830;47.566;19.012;2023-04-01T13:15:45;0.50;;;0.50;;
79361;SDS011;68830;47.566;19.012;2023-04-01T13:18:55;0.40;;;0.38;;
79361;SDS011;68830;47.566;19.012;2023-04-01T13:22:03;0.57;;;0.45;;
79361;SDS011;68830;47.566;19.012;2023-04-01T13:25:16;1.25;;;0.60;;
79361;SDS011;68830;47.566;19.012;2023-04-01T13:28:29;0.70;;;0.57;;
79361;SDS011;68830;47.566;19.012;2023-04-01T13:31:43;1.13;;;0.63;;
79361;SDS011;68830;47.566;19.012;2023-04-01T13:35:03;0.50;;;0.50;;
79361;SDS011;68830;47.566;19.012;2023-04-01T13:38:20;0.85;;;0.60;;
79361;SDS011;68830;47.566;19.012;2023-04-01T13:41:49;0.70;;;0.45;;
79361;SDS011;68830;47.566;19.012;2023-04-01T13:45:08;0.90;;;0.63;;
79361;SDS011;68830;47.566;19.012;2023-04-01T13:58:57;0.43;;;0.43;;
79361;SDS011;68830;47.566;19.012;2023-04-01T14:02:14;0.60;;;0.60;;
79361;SDS011;68830;47.566;19.012;2023-04-01T14:12:44;0.63;;;0.52;;
79361;SDS011;68830;47.566;19.012;2023-04-01T14:15:57;0.43;;;0.43;;
79361;SDS011;68830;47.566;19.012;2023-04-01T14:19:11;0.80;;;0.50;;
79361;SDS011;68830;47.566;19.012;2023-04-01T14:22:29;0.55;;;0.25;;
79361;SDS011;68830;47.566;19.012;2023-04-01T14:29:22;0.85;;;0.50;;
79361;SDS011;68830;47.566;19.012;2023-04-01T14:32:37;0.30;;;0.30;;
79361;SDS011;68830;47.566;19.012;2023-04-01T14:35:49;0.45;;;0.30;;
79361;SDS011;68830;47.566;19.012;2023-04-01T14:39:15;0.40;;;0.40;;
79361;SDS011;68830;47.566;19.012;2023-04-01T14:42:36;0.50;;;0.50;;
79361;SDS011;68830;47.566;19.012;2023-04-01T14:46:06;0.88;;;0.40;;
79361;SDS011;68830;47.566;19.012;2023-04-01T14:49:17;0.38;;;0.38;;
79361;SDS011;68830;47.566;19.012;2023-04-01T14:52:24;0.38;;;0.38;;
79361;SDS011;68830;47.566;19.012;2023-04-01T14:55:31;0.75;;;0.60;;
79361;SDS011;68830;47.566;19.012;2023-04-01T14:58:41;2.15;;;0.70;;
79361;SDS011;68830;47.566;19.012;2023-04-01T15:01:47;0.73;;;0.65;;
79361;SDS011;68830;47.566;19.012;2023-04-01T15:05:00;0.60;;;0.60;;
79361;SDS011;68830;47.566;19.012;2023-04-01T15:08:17;0.50;;;0.50;;
79361;SDS011;68830;47.566;19.012;2023-04-01T15:11:28;1.05;;;0.82;;
79361;SDS011;68830;47.566;19.012;2023-04-01T15:14:47;0.60;;;0.60;;
79361;SDS011;68830;47.566;19.012;2023-04-01T15:18:07;0.40;;;0.40;;
79361;SDS011;68830;47.566;19.012;2023-04-01T15:21:15;0.70;;;0.40;;
79361;SDS011;68830;47.566;19.012;2023-04-01T15:24:21;0.60;;;0.45;;
79361;SDS011;68830;47.566;19.012;2023-04-01T15:27:31;0.90;;;0.40;;
79361;SDS011;68830;47.566;19.012;2023-04-01T15:30:46;1.10;;;0.68;;
79361;SDS011;68830;47.566;19.012;2023-04-01T15:34:07;0.45;;;0.30;;
79361;SDS011;68830;47.566;19.012;2023-04-01T15:37:26;0.32;;;0.32;;
79361;SDS011;68830;47.566;19.012;2023-04-01T15:40:42;1.35;;;0.45;;
79361;SDS011;68830;47.566;19.012;2023-04-01T15:43:49;0.20;;;0.20;;
79361;SDS011;68830;47.566;19.012;2023-04-01T15:46:53;0.40;;;0.40;;
79361;SDS011;68830;47.566;19.012;2023-04-01T15:50:01;0.25;;;0.25;;
79361;SDS011;68830;47.566;19.012;2023-04-01T15:53:30;0.30;;;0.30;;
79361;SDS011;68830;47.566;19.012;2023-04-01T15:56:49;1.15;;;0.22;;
79361;SDS011;68830;47.566;19.012;2023-04-01T16:00:09;0.38;;;0.38;;
79361;SDS011;68830;47.566;19.012;2023-04-01T16:03:24;0.40;;;0.35;;
79361;SDS011;68830;47.566;19.012;2023-04-01T16:06:51;0.30;;;0.30;;
79361;SDS011;68830;47.566;19.012;2023-04-01T16:10:09;0.30;;;0.22;;
79361;SDS011;68830;47.566;19.012;2023-04-01T16:13:24;0.15;;;0.15;;
79361;SDS011;68830;47.566;19.012;2023-04-01T16:16:44;0.52;;;0.43;;
79361;SDS011;68830;47.566;19.012;2023-04-01T16:23:02;0.45;;;0.40;;
79361;SDS011;68830;47.566;19.012;2023-04-01T16:26:15;0.52;;;0.30;;
79361;SDS011;68830;47.566;19.012;2023-04-01T16:29:27;0.17;;;0.17;;
79361;SDS011;68830;47.566;19.012;2023-04-01T16:32:37;0.47;;;0.32;;
79361;SDS011;68830;47.566;19.012;2023-04-01T16:35:47;0.45;;;0.30;;
79361;SDS011;68830;47.566;19.012;2023-04-01T16:39:09;0.32;;;0.32;;
79361;SDS011;68830;47.566;19.012;2023-04-01T16:42:40;0.45;;;0.40;;
79361;SDS011;68830;47.566;19.012;2023-04-01T16:45:53;0.30;;;0.30;;
79361;SDS011;68830;47.566;19.012;2023-04-01T16:49:13;0.30;;;0.30;;
79361;SDS011;68830;47.566;19.012;2023-04-01T16:52:32;0.47;;;0.43;;
79361;SDS011;68830;47.566;19.012;2023-04-01T16:55:46;0.50;;;0.40;;
79361;SDS011;68830;47.566;19.012;2023-04-01T16:58:57;0.30;;;0.30;;
79361;SDS011;68830;47.566;19.012;2023-04-01T17:02:08;0.70;;;0.52;;
79361;SDS011;68830;47.566;19.012;2023-04-01T17:05:14;0.50;;;0.50;;
79361;SDS011;68830;47.566;19.012;2023-04-01T17:08:21;0.43;;;0.43;;
79361;SDS011;68830;47.566;19.012;2023-04-01T17:11:32;1.17;;;0.70;;
79361;SDS011;68830;47.566;19.012;2023-04-01T17:14:44;1.52;;;0.50;;
79361;SDS011;68830;47.566;19.012;2023-04-01T17:17:55;0.45;;;0.40;;
79361;SDS011;68830;47.566;19.012;2023-04-01T17:21:05;0.30;;;0.30;;
79361;SDS011;68830;47.566;19.012;2023-04-01T17:24:14;0.57;;;0.45;;
79361;SDS011;68830;47.566;19.012;2023-04-01T17:27:34;0.50;;;0.47;;
79361;SDS011;68830;47.566;19.012;2023-04-01T17:30:53;0.77;;;0.47;;
79361;SDS011;68830;47.566;19.012;2023-04-01T17:34:13;0.68;;;0.50;;
79361;SDS011;68830;47.566;19.012;2023-04-01T17:37:33;0.52;;;0.47;;
79361;SDS011;68830;47.566;19.012;2023-04-01T17:40:54;1.60;;;0.82;;
79361;SDS011;68830;47.566;19.012;2023-04-01T17:44:10;0.73;;;0.60;;
79361;SDS011;68830;47.566;19.012;2023-04-01T17:47:31;0.60;;;0.50;;
79361;SDS011;68830;47.566;19.012;2023-04-01T17:50:55;0.65;;;0.60;;
79361;SDS011;68830;47.566;19.012;2023-04-01T17:54:15;0.88;;;0.73;;
79361;SDS011;68830;47.566;19.012;2023-04-01T17:57:30;0.77;;;0.60;;
79361;SDS011;68830;47.566;19.012;2023-04-01T18:00:48;0.70;;;0.65;;
79361;SDS011;68830;47.566;19.012;2023-04-01T18:07:56;1.27;;;0.80;;
79361;SDS011;68830;47.566;19.012;2023-04-01T18:11:13;0.70;;;0.70;;
79361;SDS011;68830;47.566;19.012;2023-04-01T18:14:35;0.85;;;0.60;;
79361;SDS011;68830;47.566;19.012;2023-04-01T18:17:57;1.30;;;0.88;;
79361;SDS011;68830;47.566;19.012;2023-04-01T18:21:10;0.73;;;0.70;;
79361;SDS011;68830;47.566;19.012;2023-04-01T18:24:25;1.13;;;0.98;;
79361;SDS011;68830;47.566;19.012;2023-04-01T18:27:33;1.52;;;1.10;;
79361;SDS011;68830;47.566;19.012;2023-04-01T18:30:41;1.50;;;1.20;;
79361;SDS011;68830;47.566;19.012;2023-04-01T18:33:48;2.00;;;1.33;;
79361;SDS011;68830;47.566;19.012;2023-04-01T18:37:02;2.83;;;1.50;;
79361;SDS011;68830;47.566;19.012;2023-04-01T18:40:20;1.90;;;1.50;;
79361;SDS011;68830;47.566;19.012;2023-04-01T18:43:30;1.92;;;1.48;;
79361;SDS011;68830;47.566;19.012;2023-04-01T18:46:45;2.17;;;1.50;;
79361;SDS011;68830;47.566;19.012;2023-04-01T18:49:55;1.02;;;1.00;;
79361;SDS011;68830;47.566;19.012;2023-04-01T18:53:13;1.70;;;1.17;;
79361;SDS011;68830;47.566;19.012;2023-04-01T18:56:25;1.33;;;1.00;;
79361;SDS011;68830;47.566;19.012;2023-04-01T18:59:34;1.60;;;1.27;;
79361;SDS011;68830;47.566;19.012;2023-04-01T19:02:44;2.15;;;1.65;;
79361;SDS011;68830;47.566;19.012;2023-04-01T19:05:53;1.45;;;1.27;;
79361;SDS011;68830;47.566;19.012;2023-04-01T19:09:14;1.38;;;1.02;;
79361;SDS011;68830;47.566;19.012;2023-04-01T19:12:24;1.35;;;1.20;;
79361;SDS011;68830;47.566;19.012;2023-04-01T19:15:41;1.40;;;1.02;;
79361;SDS011;68830;47.566;19.012;2023-04-01T19:18:55;1.20;;;0.90;;
79361;SDS011;68830;47.566;19.012;2023-04-01T19:22:14;1.17;;;0.93;;
79361;SDS011;68830;47.566;19.012;2023-04-01T19:25:34;0.50;;;0.45;;
79361;SDS011;68830;47.566;19.012;2023-04-01T19:28:43;0.82;;;0.63;;
79361;SDS011;68830;47.566;19.012;2023-04-01T19:31:58;0.70;;;0.57;;
79361;SDS011;68830;47.566;19.012;2023-04-01T19:35:10;1.25;;;0.95;;
79361;SDS011;68830;47.566;19.012;2023-04-01T19:38:22;1.20;;;0.90;;
79361;SDS011;68830;47.566;19.012;2023-04-01T19:41:41;0.63;;;0.60;;
79361;SDS011;68830;47.566;19.012;2023-04-01T19:44:53;0.77;;;0.77;;
79361;SDS011;68830;47.566;19.012;2023-04-01T19:48:09;1.73;;;1.10;;
79361;SDS011;68830;47.566;19.012;2023-04-01T19:51:29;1.08;;;0.98;;
79361;SDS011;68830;47.566;19.012;2023-04-01T19:54:38;1.70;;;1.40;;
79361;SDS011;68830;47.566;19.012;2023-04-01T19:57:51;1.90;;;1.42;;
79361;SDS011;68830;47.566;19.012;2023-04-01T20:01:04;1.38;;;1.02;;
79361;SDS011;68830;47.566;19.012;2023-04-01T20:04:12;1.33;;;1.10;;
79361;SDS011;68830;47.566;19.012;2023-04-01T20:07:21;1.00;;;0.90;;
79361;SDS011;68830;47.566;19.012;2023-04-01T20:10:31;0.73;;;0.73;;
79361;SDS011;68830;47.566;19.012;2023-04-01T20:13:41;0.70;;;0.65;;
79361;SDS011;68830;47.566;19.012;2023-04-01T20:16:55;0.98;;;0.82;;
79361;SDS011;68830;47.566;19.012;2023-04-01T20:20:14;1.27;;;1.00;;
79361;SDS011;68830;47.566;19.012;2023-04-01T20:23:38;1.92;;;1.10;;
79361;SDS011;68830;47.566;19.012;2023-04-01T20:26:45;1.13;;;1.02;;
79361;SDS011;68830;47.566;19.012;2023-04-01T20:29:59;1.15;;;1.00;;